Equality, Missouri
Current Conditions -  °F | °C
As of 4:15 PM on Thursday 23 Oct 2014 (Local Time) from KAIZ Reporting Station
Overcast Overcast  
Wind Chill: 64°   Ceiling: 7000
Heat Index: 64°   Visibility: 10mi
Dew Point: 52°   Wind: 8mph
Humidity: 64%   Direction: 190°S
Pressure: 30.1"   Gusts: NA
Location:  38.2579°N, 92.4965°W
Report Text: KAIZ 232115Z AUTO 19007KT 10SM OVC070 18/11 A3010 RMK AO1
Loading
Personal Weather Stations






























Interactive Weather Map
Tropical Storm Tracking
New forecast layout! Learn more

10-Day Weather Forecast

Advertisements
Track Severe Weather on mobile